Time;durP1;ratioP1;P1;durP2;ratioP2;P2;SDS_P1;SDS_P2;PMS_P1;PMS_P2;Temp;Humidity;BMP_temperature;BMP_pressure;BME280_temperature;BME280_humidity;BME280_pressure;Samples;Min_cycle;Max_cycle;Signal;HPM_P1;HPM_P2
2021/06/04 00:00:32;;;;;;;20.33;14.38;;;;;;;;;;1457007;40;20436;-89
2021/06/04 00:01:34;;;;;;;23.17;15.68;;;;;;;;;;1459165;40;20732;-90
2021/06/04 00:02:36;;;;;;;21.47;14.23;;;;;;;;;;1455430;40;20634;-91
2021/06/04 00:03:37;;;;;;;26.08;15.35;;;;;;;;;;1457614;40;20732;-86
2021/06/04 00:04:42;;;;;;;20.65;15.27;;;;;;;;;;1459212;40;20421;-88
2021/06/04 00:05:50;;;;;;;22.10;14.70;;;;;;;;;;1455223;40;20715;-88
2021/06/04 00:06:52;;;;;;;20.15;14.98;;;;;;;;;;1459626;40;20433;-90
2021/06/04 00:07:54;;;;;;;19.25;13.88;;;;;;;;;;1458815;40;20443;-89
2021/06/04 00:08:56;;;;;;;20.63;13.80;;;;;;;;;;1453609;40;20885;-90
2021/06/04 00:10:01;;;;;;;17.00;13.80;;;;;;;;;;1453646;40;20480;-88
2021/06/04 00:11:05;;;;;;;19.95;14.32;;;;;;;;;;1455597;40;20480;-87
2021/06/04 00:12:07;;;;;;;18.63;14.30;;;;;;;;;;1462657;40;20421;-90
2021/06/04 00:13:37;;;;;;;19.70;14.57;;;;;;;;;;1463999;40;20412;-88
2021/06/04 00:14:40;;;;;;;20.55;15.20;;;;;;;;;;1454752;40;20411;-86
2021/06/04 00:15:42;;;;;;;20.35;14.95;;;;;;;;;;1454635;40;20455;-85
2021/06/04 00:16:59;;;;;;;21.40;15.52;;;;;;;;;;1457990;40;20449;-89
2021/06/04 00:18:03;;;;;;;20.55;15.13;;;;;;;;;;1459628;40;20423;-88
2021/06/04 00:19:17;;;;;;;17.27;14.98;;;;;;;;;;1458793;40;20423;-87
2021/06/04 00:20:26;;;;;;;25.08;15.93;;;;;;;;;;1455009;40;20416;-90
2021/06/04 00:21:34;;;;;;;20.98;15.48;;;;;;;;;;1457914;40;20414;-87
2021/06/04 00:22:36;;;;;;;19.45;14.50;;;;;;;;;;1465169;40;20405;-87
2021/06/04 00:23:38;;;;;;;19.65;15.02;;;;;;;;;;1462445;40;20450;-89
2021/06/04 00:24:44;;;;;;;19.53;14.80;;;;;;;;;;1463039;40;20572;-84
2021/06/04 00:25:45;;;;;;;23.50;15.00;;;;;;;;;;1467771;40;20397;-83
2021/06/04 00:26:48;;;;;;;20.75;15.30;;;;;;;;;;1463766;40;20446;-85
2021/06/04 00:27:50;;;;;;;21.50;14.77;;;;;;;;;;1460033;40;20409;-84
2021/06/04 00:28:52;;;;;;;20.27;14.80;;;;;;;;;;1464136;40;20422;-85
2021/06/04 00:29:53;;;;;;;20.48;14.73;;;;;;;;;;1468201;40;20432;-87
2021/06/04 00:30:56;;;;;;;21.98;15.05;;;;;;;;;;1464526;40;20478;-86
2021/06/04 00:31:58;;;;;;;20.48;14.80;;;;;;;;;;1458458;40;20763;-91
2021/06/04 00:33:00;;;;;;;20.60;15.55;;;;;;;;;;1460404;40;20558;-91
2021/06/04 00:34:03;;;;;;;18.47;14.77;;;;;;;;;;1464373;40;20566;-89
2021/06/04 00:35:09;;;;;;;22.35;15.48;;;;;;;;;;1461667;40;20490;-89
2021/06/04 00:36:11;;;;;;;19.02;15.02;;;;;;;;;;1455371;40;20479;-87
2021/06/04 00:37:13;;;;;;;18.45;15.20;;;;;;;;;;1455421;40;20539;-88
2021/06/04 00:38:15;;;;;;;19.48;15.15;;;;;;;;;;1456457;40;20423;-88
2021/06/04 00:39:21;;;;;;;24.00;15.10;;;;;;;;;;1459727;40;20436;-88
2021/06/04 00:40:27;;;;;;;21.25;16.13;;;;;;;;;;1459247;40;20432;-84
2021/06/04 00:41:35;;;;;;;22.83;15.93;;;;;;;;;;1456577;40;20433;-86
2021/06/04 00:42:37;;;;;;;18.67;14.30;;;;;;;;;;1465433;40;20416;-86
2021/06/04 00:43:39;;;;;;;21.13;14.17;;;;;;;;;;1465196;40;21085;-86
2021/06/04 00:44:42;;;;;;;23.02;15.23;;;;;;;;;;1462637;40;20492;-86
2021/06/04 00:45:47;;;;;;;19.35;15.13;;;;;;;;;;1461526;40;20428;-87
2021/06/04 00:46:49;;;;;;;22.08;15.50;;;;;;;;;;1462533;40;20685;-88
2021/06/04 00:47:52;;;;;;;21.88;15.63;;;;;;;;;;1462827;40;20465;-88
2021/06/04 00:48:54;;;;;;;22.65;15.75;;;;;;;;;;1462136;40;20442;-89
2021/06/04 00:49:55;;;;;;;19.85;15.32;;;;;;;;;;1462231;40;20420;-88
2021/06/04 00:51:12;;;;;;;21.20;15.43;;;;;;;;;;1457324;40;20425;-86
2021/06/04 00:52:33;;;;;;;19.95;15.40;;;;;;;;;;1455187;40;20727;-85
2021/06/04 00:53:35;;;;;;;21.03;15.10;;;;;;;;;;1455611;40;20482;-86
2021/06/04 00:54:39;;;;;;;19.42;15.13;;;;;;;;;;1458186;40;20498;-87
2021/06/04 00:55:42;;;;;;;22.10;14.97;;;;;;;;;;1462490;40;20779;-85
2021/06/04 00:56:45;;;;;;;19.92;14.75;;;;;;;;;;1462214;40;20449;-87
2021/06/04 00:57:48;;;;;;;20.48;15.55;;;;;;;;;;1462697;40;20429;-87
2021/06/04 00:58:50;;;;;;;22.03;15.23;;;;;;;;;;1458321;40;20418;-87
2021/06/04 01:00:01;;;;;;;19.48;14.75;;;;;;;;;;1456978;40;20419;-87
2021/06/04 01:01:04;;;;;;;23.73;14.77;;;;;;;;;;1458271;40;21353;-89
2021/06/04 01:02:22;;;;;;;19.50;15.45;;;;;;;;;;1455930;40;20837;-89
2021/06/04 01:03:26;;;;;;;23.80;14.93;;;;;;;;;;1456122;40;20403;-88
2021/06/04 01:04:29;;;;;;;19.60;14.90;;;;;;;;;;1459032;40;20470;-90
2021/06/04 01:05:32;;;;;;;24.13;15.68;;;;;;;;;;1451126;40;20426;-88
2021/06/04 01:06:41;;;;;;;21.77;16.30;;;;;;;;;;1454566;40;20435;-90
2021/06/04 01:08:20;;;;;;;23.15;15.15;;;;;;;;;;1463205;40;20409;-88
2021/06/04 01:09:30;;;;;;;23.05;15.77;;;;;;;;;;1463507;40;20404;-90
2021/06/04 01:11:17;;;;;;;19.88;14.85;;;;;;;;;;1462633;40;20401;-88
2021/06/04 01:12:43;;;;;;;22.48;16.20;;;;;;;;;;1461986;40;20482;-87
2021/06/04 01:14:15;;;;;;;24.27;15.52;;;;;;;;;;1458364;40;20450;-85
2021/06/04 01:15:38;;;;;;;20.92;16.15;;;;;;;;;;1459127;40;20428;-87
2021/06/04 01:16:57;;;;;;;23.00;15.88;;;;;;;;;;1455128;40;20416;-84
2021/06/04 01:18:07;;;;;;;20.98;15.48;;;;;;;;;;1459415;40;20902;-88
2021/06/04 01:19:32;;;;;;;21.55;15.85;;;;;;;;;;1462954;40;20413;-87
2021/06/04 01:20:44;;;;;;;22.88;15.57;;;;;;;;;;1463095;40;20834;-86
2021/06/04 01:21:55;;;;;;;26.88;16.33;;;;;;;;;;1457613;40;20487;-86
2021/06/04 01:23:19;;;;;;;22.77;16.60;;;;;;;;;;1462445;40;20410;-89
2021/06/04 01:24:43;;;;;;;21.48;16.75;;;;;;;;;;1464852;40;20396;-88
2021/06/04 01:26:02;;;;;;;21.90;16.38;;;;;;;;;;1467365;40;20419;-86
2021/06/04 01:27:09;;;;;;;24.17;16.83;;;;;;;;;;1466725;40;20440;-86
2021/06/04 01:28:20;;;;;;;21.58;15.93;;;;;;;;;;1458734;40;20414;-88
2021/06/04 01:29:33;;;;;;;22.00;17.42;;;;;;;;;;1460404;40;20414;-87
2021/06/04 01:30:37;;;;;;;23.45;16.02;;;;;;;;;;1466368;40;20429;-85
2021/06/04 01:31:55;;;;;;;24.42;16.75;;;;;;;;;;1462465;40;20423;-85
2021/06/04 01:33:04;;;;;;;20.92;16.50;;;;;;;;;;1459410;40;20456;-88
2021/06/04 01:34:14;;;;;;;22.60;16.30;;;;;;;;;;1463515;40;20409;-86
2021/06/04 01:35:20;;;;;;;25.20;17.08;;;;;;;;;;1461525;40;20450;-86
2021/06/04 01:36:27;;;;;;;22.70;16.75;;;;;;;;;;1459899;40;21180;-87
2021/06/04 01:37:31;;;;;;;25.80;17.33;;;;;;;;;;1458661;40;20516;-85
2021/06/04 01:38:39;;;;;;;26.98;18.20;;;;;;;;;;1456963;40;20416;-84
2021/06/04 01:39:45;;;;;;;23.02;17.92;;;;;;;;;;1463443;40;20394;-83
2021/06/04 01:40:50;;;;;;;26.67;18.58;;;;;;;;;;1465037;40;20420;-86
2021/06/04 01:41:54;;;;;;;24.25;18.40;;;;;;;;;;1460195;40;20426;-86
2021/06/04 01:42:59;;;;;;;22.35;17.05;;;;;;;;;;1455328;40;20747;-86
2021/06/04 01:44:07;;;;;;;24.05;17.10;;;;;;;;;;1459375;40;20427;-87
2021/06/04 01:45:13;;;;;;;28.35;17.67;;;;;;;;;;1457798;40;20814;-85
2021/06/04 01:46:27;;;;;;;23.58;17.48;;;;;;;;;;1460267;40;20982;-86
2021/06/04 01:47:37;;;;;;;23.30;17.95;;;;;;;;;;1463336;40;20415;-84
2021/06/04 01:48:41;;;;;;;26.88;18.10;;;;;;;;;;1463543;40;20444;-85
2021/06/04 01:49:50;;;;;;;24.98;17.63;;;;;;;;;;1463500;40;20599;-82
2021/06/04 01:51:13;;;;;;;25.30;17.98;;;;;;;;;;1464398;40;20436;-84
2021/06/04 01:52:26;;;;;;;24.25;17.83;;;;;;;;;;1462729;40;20418;-83
2021/06/04 01:53:30;;;;;;;25.10;17.77;;;;;;;;;;1462842;40;20403;-87
2021/06/04 01:54:47;;;;;;;23.50;18.25;;;;;;;;;;1463354;40;20420;-87
2021/06/04 01:55:53;;;;;;;25.70;18.55;;;;;;;;;;1462343;40;20408;-86
2021/06/04 01:57:00;;;;;;;24.38;18.33;;;;;;;;;;1461826;40;20441;-86
2021/06/04 01:58:17;;;;;;;26.17;18.90;;;;;;;;;;1462793;40;20420;-87
2021/06/04 01:59:32;;;;;;;25.88;18.95;;;;;;;;;;1466415;40;20405;-84
2021/06/04 02:00:45;;;;;;;27.05;19.67;;;;;;;;;;1463273;40;20403;-84
2021/06/04 02:01:49;;;;;;;25.67;19.33;;;;;;;;;;1464759;40;20414;-85
2021/06/04 02:02:51;;;;;;;27.23;18.75;;;;;;;;;;1467361;40;20401;-85
2021/06/04 02:03:53;;;;;;;26.25;18.88;;;;;;;;;;1467278;40;20445;-83
2021/06/04 02:04:55;;;;;;;25.02;17.38;;;;;;;;;;1463298;40;20447;-86
2021/06/04 02:05:59;;;;;;;24.50;19.85;;;;;;;;;;1459319;40;20424;-85
2021/06/04 02:07:02;;;;;;;27.73;19.13;;;;;;;;;;1462917;40;20735;-86
2021/06/04 02:08:06;;;;;;;26.73;18.45;;;;;;;;;;1462227;40;20445;-85
2021/06/04 02:09:12;;;;;;;27.95;20.15;;;;;;;;;;1463226;40;20413;-85
2021/06/04 02:10:22;;;;;;;34.07;20.37;;;;;;;;;;1460302;40;20537;-88
2021/06/04 02:11:28;;;;;;;28.77;20.23;;;;;;;;;;1456997;40;20533;-87
2021/06/04 02:12:30;;;;;;;29.60;20.73;;;;;;;;;;1460919;40;20414;-86
2021/06/04 02:13:32;;;;;;;26.05;19.73;;;;;;;;;;1458603;40;20454;-87
2021/06/04 02:14:40;;;;;;;29.80;20.02;;;;;;;;;;1458187;40;20733;-87
2021/06/04 02:15:49;;;;;;;27.23;20.27;;;;;;;;;;1457163;40;20747;-84
2021/06/04 02:16:58;;;;;;;30.08;19.73;;;;;;;;;;1458539;40;20446;-86
2021/06/04 02:18:05;;;;;;;29.67;20.27;;;;;;;;;;1462949;40;20463;-86
2021/06/04 02:19:25;;;;;;;28.45;20.45;;;;;;;;;;1462489;40;20885;-86
2021/06/04 02:20:38;;;;;;;29.80;21.13;;;;;;;;;;1461535;40;20420;-87
2021/06/04 02:21:52;;;;;;;26.63;21.20;;;;;;;;;;1454152;40;20420;-85
2021/06/04 02:23:03;;;;;;;27.48;20.15;;;;;;;;;;1462489;40;20413;-87
2021/06/04 02:24:17;;;;;;;30.15;20.52;;;;;;;;;;1462877;40;20405;-86
2021/06/04 02:25:31;;;;;;;26.65;18.95;;;;;;;;;;1462211;40;20630;-87
2021/06/04 02:26:51;;;;;;;27.23;21.05;;;;;;;;;;1458273;40;20473;-86
2021/06/04 02:27:58;;;;;;;30.95;21.05;;;;;;;;;;1458600;40;20407;-87
2021/06/04 02:29:13;;;;;;;28.90;19.90;;;;;;;;;;1462219;40;20424;-85
2021/06/04 02:30:47;;;;;;;29.30;20.90;;;;;;;;;;1455409;40;20828;-86
2021/06/04 02:31:49;;;;;;;32.05;21.25;;;;;;;;;;1458789;40;20853;-87
2021/06/04 02:33:06;;;;;;;26.02;20.27;;;;;;;;;;1458192;40;20646;-87
2021/06/04 02:34:17;;;;;;;28.90;19.53;;;;;;;;;;1462309;40;20510;-87
2021/06/04 02:35:23;;;;;;;28.52;20.90;;;;;;;;;;1454055;40;20753;-88
2021/06/04 02:36:39;;;;;;;33.72;21.52;;;;;;;;;;1453767;40;20421;-88
2021/06/04 02:37:48;;;;;;;30.92;21.02;;;;;;;;;;1455248;40;20412;-85
2021/06/04 02:38:57;;;;;;;28.63;20.17;;;;;;;;;;1458057;40;20407;-88
2021/06/04 02:40:02;;;;;;;28.80;20.20;;;;;;;;;;1458064;40;20414;-87
2021/06/04 02:41:28;;;;;;;28.05;19.73;;;;;;;;;;1458100;40;20414;-87
2021/06/04 02:42:39;;;;;;;30.02;19.65;;;;;;;;;;1457720;40;20749;-87
2021/06/04 02:43:46;;;;;;;30.13;21.60;;;;;;;;;;1460753;40;20734;-86
2021/06/04 02:44:55;;;;;;;30.40;21.20;;;;;;;;;;1455805;40;20421;-88
2021/06/04 02:46:01;;;;;;;29.08;20.58;;;;;;;;;;1456793;40;20411;-87
2021/06/04 02:47:15;;;;;;;26.55;22.05;;;;;;;;;;1462576;40;20425;-87
2021/06/04 02:48:19;;;;;;;32.08;20.92;;;;;;;;;;1460563;40;20452;-88
2021/06/04 02:49:23;;;;;;;28.70;19.88;;;;;;;;;;1462559;40;20416;-89
2021/06/04 02:50:31;;;;;;;28.83;21.02;;;;;;;;;;1457743;40;20431;-87
2021/06/04 02:51:41;;;;;;;30.75;20.95;;;;;;;;;;1450239;40;20417;-87
2021/06/04 02:52:44;;;;;;;28.55;20.92;;;;;;;;;;1454283;40;20409;-85
2021/06/04 02:53:51;;;;;;;26.92;20.17;;;;;;;;;;1454020;40;20432;-87
2021/06/04 02:54:52;;;;;;;29.48;20.42;;;;;;;;;;1454401;40;20692;-87
2021/06/04 02:56:15;;;;;;;27.23;19.73;;;;;;;;;;1458634;40;20431;-87
2021/06/04 02:57:20;;;;;;;30.20;21.95;;;;;;;;;;1464336;40;21062;-88
2021/06/04 02:58:21;;;;;;;28.83;20.80;;;;;;;;;;1460942;40;20414;-87
2021/06/04 02:59:30;;;;;;;27.23;20.70;;;;;;;;;;1454370;40;20433;-85
2021/06/04 03:00:41;;;;;;;38.38;21.67;;;;;;;;;;1459054;40;20557;-85
2021/06/04 03:01:51;;;;;;;26.98;21.13;;;;;;;;;;1463460;40;20407;-84
2021/06/04 03:02:53;;;;;;;27.25;21.25;;;;;;;;;;1464814;40;20426;-87
2021/06/04 03:03:59;;;;;;;29.52;21.77;;;;;;;;;;1463661;40;20772;-86
2021/06/04 03:05:10;;;;;;;27.95;20.35;;;;;;;;;;1464218;40;20410;-87
2021/06/04 03:06:14;;;;;;;26.55;21.48;;;;;;;;;;1459550;40;20423;-88
2021/06/04 03:07:23;;;;;;;31.85;21.73;;;;;;;;;;1455319;40;20691;-88
2021/06/04 03:08:26;;;;;;;26.50;19.80;;;;;;;;;;1458036;40;20399;-87
2021/06/04 03:09:31;;;;;;;29.42;21.60;;;;;;;;;;1458008;40;20426;-87
2021/06/04 03:10:46;;;;;;;29.27;20.95;;;;;;;;;;1455139;40;21348;-87
2021/06/04 03:11:51;;;;;;;27.35;20.15;;;;;;;;;;1458766;40;20718;-88
2021/06/04 03:12:53;;;;;;;27.75;21.10;;;;;;;;;;1462663;40;20393;-88
2021/06/04 03:13:56;;;;;;;32.13;21.95;;;;;;;;;;1462709;40;20429;-87
2021/06/04 03:14:59;;;;;;;28.77;22.92;;;;;;;;;;1456328;40;20432;-88
2021/06/04 03:16:05;;;;;;;28.98;20.60;;;;;;;;;;1457914;40;20493;-88
2021/06/04 03:17:09;;;;;;;30.88;23.35;;;;;;;;;;1460164;40;20503;-88
2021/06/04 03:18:13;;;;;;;33.38;22.10;;;;;;;;;;1458551;40;20768;-89
2021/06/04 03:19:16;;;;;;;31.92;22.38;;;;;;;;;;1458468;40;20407;-87
2021/06/04 03:20:23;;;;;;;28.67;22.30;;;;;;;;;;1449521;41;20534;-85
2021/06/04 03:21:32;;;;;;;32.03;22.80;;;;;;;;;;1456337;40;20431;-87
2021/06/04 03:22:37;;;;;;;35.58;23.45;;;;;;;;;;1461385;40;20413;-86
2021/06/04 03:23:39;;;;;;;30.77;22.20;;;;;;;;;;1463386;40;20416;-87
2021/06/04 03:24:44;;;;;;;33.55;22.73;;;;;;;;;;1463249;40;20420;-84
2021/06/04 03:25:49;;;;;;;35.72;22.30;;;;;;;;;;1463058;40;20408;-84
2021/06/04 03:26:53;;;;;;;32.40;21.92;;;;;;;;;;1458587;40;20570;-86
2021/06/04 03:27:55;;;;;;;28.48;21.08;;;;;;;;;;1458544;40;20439;-87
2021/06/04 03:29:00;;;;;;;31.20;22.10;;;;;;;;;;1463165;40;20420;-86
2021/06/04 03:30:05;;;;;;;30.45;21.63;;;;;;;;;;1461584;40;20419;-86
2021/06/04 03:31:09;;;;;;;31.25;22.48;;;;;;;;;;1458657;40;20406;-87
2021/06/04 03:32:13;;;;;;;31.20;20.85;;;;;;;;;;1458219;40;20426;-85
2021/06/04 03:33:16;;;;;;;32.85;22.15;;;;;;;;;;1458524;40;20438;-87
2021/06/04 03:34:19;;;;;;;28.55;21.10;;;;;;;;;;1456854;40;20814;-86
2021/06/04 03:35:21;;;;;;;32.08;21.60;;;;;;;;;;1461403;40;20427;-86
2021/06/04 03:36:28;;;;;;;26.10;20.25;;;;;;;;;;1464630;40;20456;-86
2021/06/04 03:37:30;;;;;;;30.63;21.25;;;;;;;;;;1463605;40;20407;-86
2021/06/04 03:38:32;;;;;;;28.73;21.13;;;;;;;;;;1463927;40;20417;-88
2021/06/04 03:39:39;;;;;;;30.38;21.38;;;;;;;;;;1457820;40;20467;-86
2021/06/04 03:40:41;;;;;;;30.52;21.27;;;;;;;;;;1459843;40;20409;-85
2021/06/04 03:41:46;;;;;;;30.15;22.23;;;;;;;;;;1462903;40;20418;-84
2021/06/04 03:42:49;;;;;;;33.00;23.17;;;;;;;;;;1459658;40;20471;-83
2021/06/04 03:43:52;;;;;;;31.35;22.70;;;;;;;;;;1459223;40;20411;-84
2021/06/04 03:44:54;;;;;;;34.47;22.00;;;;;;;;;;1454062;40;20535;-88
2021/06/04 03:45:56;;;;;;;32.33;22.30;;;;;;;;;;1456301;40;20432;-88
2021/06/04 03:46:59;;;;;;;31.90;22.55;;;;;;;;;;1457894;40;20474;-89
2021/06/04 03:48:07;;;;;;;31.65;22.17;;;;;;;;;;1459733;40;20422;-89
2021/06/04 03:49:10;;;;;;;30.92;22.58;;;;;;;;;;1463914;40;20405;-85
2021/06/04 03:50:13;;;;;;;30.65;22.90;;;;;;;;;;1467169;40;20501;-84
2021/06/04 03:51:21;;;;;;;35.20;24.00;;;;;;;;;;1464506;40;20474;-86
2021/06/04 03:52:25;;;;;;;32.83;22.73;;;;;;;;;;1462157;40;20443;-86
2021/06/04 03:53:27;;;;;;;31.90;23.90;;;;;;;;;;1459963;40;20427;-87
2021/06/04 03:54:41;;;;;;;33.88;22.90;;;;;;;;;;1455749;40;20485;-86
2021/06/04 03:55:43;;;;;;;32.75;23.25;;;;;;;;;;1455832;40;20420;-83
2021/06/04 03:56:46;;;;;;;33.38;23.80;;;;;;;;;;1460565;40;20722;-83
2021/06/04 03:57:49;;;;;;;34.03;24.15;;;;;;;;;;1465549;40;20421;-86
2021/06/04 03:58:53;;;;;;;30.92;22.85;;;;;;;;;;1465327;40;20461;-85
2021/06/04 03:59:55;;;;;;;25.95;22.25;;;;;;;;;;1457751;40;20490;-86
2021/06/04 04:01:01;;;;;;;30.60;22.38;;;;;;;;;;1457763;40;20456;-87
2021/06/04 04:02:08;;;;;;;32.00;23.23;;;;;;;;;;1463171;40;20599;-86
2021/06/04 04:03:14;;;;;;;32.05;22.92;;;;;;;;;;1461345;40;20398;-87
2021/06/04 04:04:16;;;;;;;35.10;22.80;;;;;;;;;;1454870;40;20421;-87
2021/06/04 04:05:18;;;;;;;29.35;21.58;;;;;;;;;;1450869;40;20531;-88
2021/06/04 04:06:20;;;;;;;31.08;22.40;;;;;;;;;;1454718;40;20524;-88
2021/06/04 04:07:24;;;;;;;34.92;23.83;;;;;;;;;;1453636;40;20502;-87
2021/06/04 04:08:27;;;;;;;34.05;23.92;;;;;;;;;;1453717;40;20499;-88
2021/06/04 04:09:29;;;;;;;34.10;23.75;;;;;;;;;;1454273;40;20532;-88
2021/06/04 04:10:31;;;;;;;31.05;23.60;;;;;;;;;;1454183;40;20536;-87
2021/06/04 04:11:33;;;;;;;32.88;24.48;;;;;;;;;;1458346;40;20453;-87
2021/06/04 04:12:36;;;;;;;31.25;24.10;;;;;;;;;;1458319;40;20399;-87
2021/06/04 04:13:37;;;;;;;32.83;24.88;;;;;;;;;;1457067;40;20741;-87
2021/06/04 04:14:39;;;;;;;34.53;24.75;;;;;;;;;;1454207;40;20442;-89
2021/06/04 04:15:41;;;;;;;40.67;25.60;;;;;;;;;;1456495;40;20441;-86
2021/06/04 04:16:43;;;;;;;39.25;25.23;;;;;;;;;;1455160;40;20432;-84
2021/06/04 04:17:47;;;;;;;33.95;26.30;;;;;;;;;;1458001;40;20410;-85
2021/06/04 04:18:48;;;;;;;34.58;25.70;;;;;;;;;;1458435;40;20526;-87
2021/06/04 04:19:50;;;;;;;39.33;26.63;;;;;;;;;;1458195;40;20407;-88
2021/06/04 04:20:58;;;;;;;35.53;25.65;;;;;;;;;;1455559;40;20506;-88
2021/06/04 04:22:00;;;;;;;40.65;25.55;;;;;;;;;;1454641;40;20444;-88
2021/06/04 04:23:03;;;;;;;35.50;26.73;;;;;;;;;;1454246;40;20465;-88
2021/06/04 04:24:13;;;;;;;36.88;27.00;;;;;;;;;;1459584;40;20431;-87
2021/06/04 04:25:15;;;;;;;38.58;26.00;;;;;;;;;;1457673;40;20677;-87
2021/06/04 04:26:21;;;;;;;36.50;25.48;;;;;;;;;;1458529;40;20497;-87
2021/06/04 04:27:23;;;;;;;36.58;24.92;;;;;;;;;;1458005;40;20422;-87
2021/06/04 04:28:31;;;;;;;33.92;24.73;;;;;;;;;;1456271;40;20512;-87
2021/06/04 04:29:33;;;;;;;30.75;23.10;;;;;;;;;;1459354;40;20406;-85
2021/06/04 04:30:35;;;;;;;32.00;23.63;;;;;;;;;;1456711;40;20533;-87
2021/06/04 04:31:41;;;;;;;37.10;25.20;;;;;;;;;;1454698;40;20703;-86
2021/06/04 04:32:43;;;;;;;31.90;22.48;;;;;;;;;;1458136;40;20495;-84
2021/06/04 04:33:45;;;;;;;29.27;23.67;;;;;;;;;;1458574;40;20977;-85
2021/06/04 04:34:47;;;;;;;34.45;23.60;;;;;;;;;;1454974;40;20955;-87
2021/06/04 04:35:49;;;;;;;32.37;22.90;;;;;;;;;;1454032;40;21137;-84
2021/06/04 04:36:54;;;;;;;32.30;22.53;;;;;;;;;;1454194;40;20432;-87
2021/06/04 04:37:56;;;;;;;32.53;23.90;;;;;;;;;;1458100;40;20517;-87
2021/06/04 04:38:57;;;;;;;31.52;22.40;;;;;;;;;;1462178;40;20425;-87
2021/06/04 04:39:59;;;;;;;33.60;24.27;;;;;;;;;;1458156;40;20403;-86
2021/06/04 04:41:03;;;;;;;33.93;23.67;;;;;;;;;;1454220;40;20844;-87
2021/06/04 04:42:08;;;;;;;32.28;24.42;;;;;;;;;;1455058;40;20987;-86
2021/06/04 04:43:10;;;;;;;36.10;24.00;;;;;;;;;;1459171;40;20455;-87
2021/06/04 04:44:12;;;;;;;32.72;23.60;;;;;;;;;;1462056;40;20397;-85
2021/06/04 04:45:19;;;;;;;34.85;23.02;;;;;;;;;;1459839;40;20815;-86
2021/06/04 04:46:24;;;;;;;38.03;23.75;;;;;;;;;;1462672;40;20413;-87
2021/06/04 04:47:26;;;;;;;31.08;23.05;;;;;;;;;;1458817;40;20450;-88
2021/06/04 04:48:28;;;;;;;34.42;23.38;;;;;;;;;;1454268;40;20502;-88
2021/06/04 04:49:29;;;;;;;33.85;24.83;;;;;;;;;;1447952;40;20435;-88
2021/06/04 04:50:32;;;;;;;35.08;25.67;;;;;;;;;;1453360;40;20913;-86
2021/06/04 04:51:35;;;;;;;34.10;25.15;;;;;;;;;;1453918;40;20496;-84
2021/06/04 04:52:37;;;;;;;33.97;24.10;;;;;;;;;;1458502;40;20470;-86
2021/06/04 04:53:39;;;;;;;32.15;23.95;;;;;;;;;;1462986;40;20503;-86
2021/06/04 04:54:48;;;;;;;34.90;24.40;;;;;;;;;;1454109;40;20599;-88
2021/06/04 04:55:49;;;;;;;32.83;25.25;;;;;;;;;;1454239;40;20416;-86
2021/06/04 04:56:51;;;;;;;35.47;24.48;;;;;;;;;;1458490;40;20459;-87
2021/06/04 04:57:53;;;;;;;32.42;24.08;;;;;;;;;;1461901;40;20421;-86
2021/06/04 04:58:55;;;;;;;34.80;25.50;;;;;;;;;;1462871;40;20432;-88
2021/06/04 04:59:56;;;;;;;32.70;23.20;;;;;;;;;;1456594;40;20438;-87
2021/06/04 05:00:58;;;;;;;32.15;23.95;;;;;;;;;;1457458;40;20433;-88
2021/06/04 05:02:00;;;;;;;33.20;24.85;;;;;;;;;;1456264;40;20432;-87
2021/06/04 05:03:02;;;;;;;37.28;25.10;;;;;;;;;;1452413;40;20797;-87
2021/06/04 05:04:05;;;;;;;36.00;26.13;;;;;;;;;;1454640;40;20472;-88
2021/06/04 05:05:07;;;;;;;36.30;25.48;;;;;;;;;;1450048;40;20451;-88
2021/06/04 05:06:10;;;;;;;34.75;25.80;;;;;;;;;;1457080;40;20748;-89
2021/06/04 05:07:13;;;;;;;33.67;24.30;;;;;;;;;;1460898;40;20560;-85
2021/06/04 05:08:15;;;;;;;36.38;24.95;;;;;;;;;;1462191;40;20407;-85
2021/06/04 05:09:16;;;;;;;32.33;24.50;;;;;;;;;;1458908;40;20429;-87
2021/06/04 05:10:19;;;;;;;32.63;24.63;;;;;;;;;;1458208;40;20559;-87
2021/06/04 05:11:21;;;;;;;38.97;26.52;;;;;;;;;;1458548;40;20452;-87
2021/06/04 05:12:22;;;;;;;39.45;26.08;;;;;;;;;;1458274;40;20517;-88
2021/06/04 05:13:24;;;;;;;37.95;25.15;;;;;;;;;;1454320;40;20424;-87
2021/06/04 05:14:26;;;;;;;36.88;25.55;;;;;;;;;;1454184;40;20424;-87
2021/06/04 05:15:31;;;;;;;37.63;24.70;;;;;;;;;;1447926;40;20899;-88
2021/06/04 05:16:33;;;;;;;31.25;23.65;;;;;;;;;;1454747;40;20401;-88
2021/06/04 05:17:35;;;;;;;35.05;23.85;;;;;;;;;;1458087;40;20399;-87
2021/06/04 05:18:37;;;;;;;36.42;25.90;;;;;;;;;;1458914;40;20519;-86
2021/06/04 05:19:42;;;;;;;35.17;25.00;;;;;;;;;;1463810;40;20767;-87
2021/06/04 05:20:47;;;;;;;35.22;24.95;;;;;;;;;;1456342;40;20757;-86
2021/06/04 05:21:48;;;;;;;30.75;23.40;;;;;;;;;;1454417;40;20428;-87
2021/06/04 05:22:52;;;;;;;31.25;23.63;;;;;;;;;;1457390;40;20444;-87
2021/06/04 05:23:54;;;;;;;34.72;26.35;;;;;;;;;;1450670;40;20497;-86
2021/06/04 05:24:56;;;;;;;30.20;23.83;;;;;;;;;;1450294;40;20606;-86
2021/06/04 05:25:57;;;;;;;38.53;25.35;;;;;;;;;;1453784;40;20428;-86
2021/06/04 05:26:59;;;;;;;35.60;24.05;;;;;;;;;;1457980;40;20430;-87
2021/06/04 05:28:01;;;;;;;33.95;24.13;;;;;;;;;;1461905;40;20934;-88
2021/06/04 05:29:05;;;;;;;33.20;24.65;;;;;;;;;;1462675;40;20730;-87
2021/06/04 05:30:34;;;;;;;35.28;25.17;;;;;;;;;;1460751;40;20434;-86
2021/06/04 05:31:38;;;;;;;37.72;24.88;;;;;;;;;;1463604;40;21010;-85
2021/06/04 05:32:40;;;;;;;33.85;25.73;;;;;;;;;;1466308;40;20424;-84
2021/06/04 05:33:45;;;;;;;32.25;25.10;;;;;;;;;;1467545;40;20409;-84
2021/06/04 05:34:47;;;;;;;36.35;24.27;;;;;;;;;;1467925;40;20425;-83
2021/06/04 05:35:51;;;;;;;33.30;25.60;;;;;;;;;;1462687;40;20450;-84
2021/06/04 05:36:52;;;;;;;34.90;24.80;;;;;;;;;;1456061;40;20495;-85
2021/06/04 05:37:55;;;;;;;34.60;24.60;;;;;;;;;;1459997;40;20416;-85
2021/06/04 05:38:57;;;;;;;35.63;25.17;;;;;;;;;;1464027;40;20439;-87
2021/06/04 05:39:58;;;;;;;36.15;25.40;;;;;;;;;;1463743;40;20419;-84
2021/06/04 05:41:00;;;;;;;36.45;24.55;;;;;;;;;;1455230;40;20707;-86
2021/06/04 05:42:04;;;;;;;38.72;26.00;;;;;;;;;;1450820;40;20445;-85
2021/06/04 05:43:09;;;;;;;38.60;25.90;;;;;;;;;;1454566;40;20535;-86
2021/06/04 05:44:14;;;;;;;39.75;26.70;;;;;;;;;;1458814;40;20450;-88
2021/06/04 05:45:28;;;;;;;40.67;27.60;;;;;;;;;;1462508;40;20425;-86
2021/06/04 05:46:30;;;;;;;41.72;28.58;;;;;;;;;;1460986;40;20399;-85
2021/06/04 05:47:31;;;;;;;39.78;28.60;;;;;;;;;;1463740;40;20424;-86
2021/06/04 05:48:33;;;;;;;38.78;28.50;;;;;;;;;;1462511;40;20518;-86
2021/06/04 05:49:35;;;;;;;38.78;28.50;;;;;;;;;;1458055;40;20514;-85
2021/06/04 05:50:39;;;;;;;40.13;27.23;;;;;;;;;;1457984;40;20600;-86
2021/06/04 05:51:42;;;;;;;42.55;28.30;;;;;;;;;;1458190;40;20555;-86
2021/06/04 05:52:44;;;;;;;38.50;27.65;;;;;;;;;;1459042;40;20422;-85
2021/06/04 05:53:47;;;;;;;37.20;28.25;;;;;;;;;;1462478;40;20421;-84
2021/06/04 05:54:49;;;;;;;42.00;28.17;;;;;;;;;;1462229;40;20421;-85
2021/06/04 05:55:51;;;;;;;41.25;28.67;;;;;;;;;;1458107;40;20529;-84
2021/06/04 05:56:53;;;;;;;39.72;26.75;;;;;;;;;;1453794;40;20637;-87
2021/06/04 05:57:55;;;;;;;40.05;27.50;;;;;;;;;;1458517;40;20450;-86
2021/06/04 05:58:57;;;;;;;41.28;28.52;;;;;;;;;;1463322;40;20436;-85
2021/06/04 05:59:58;;;;;;;36.60;27.83;;;;;;;;;;1457619;40;20526;-86
2021/06/04 06:01:05;;;;;;;37.90;26.48;;;;;;;;;;1453997;40;20813;-86
2021/06/04 06:02:08;;;;;;;41.25;26.92;;;;;;;;;;1454823;40;20418;-86
2021/06/04 06:03:13;;;;;;;37.40;27.95;;;;;;;;;;1459344;40;20464;-85
2021/06/04 06:04:16;;;;;;;36.80;26.40;;;;;;;;;;1455583;40;20749;-85
2021/06/04 06:05:18;;;;;;;35.13;25.95;;;;;;;;;;1455872;40;20457;-84
2021/06/04 06:06:20;;;;;;;39.00;28.40;;;;;;;;;;1463329;40;20545;-87
2021/06/04 06:07:22;;;;;;;41.85;26.88;;;;;;;;;;1458738;40;20470;-86
2021/06/04 06:08:25;;;;;;;37.55;26.02;;;;;;;;;;1453726;40;20462;-86
2021/06/04 06:09:26;;;;;;;42.28;27.65;;;;;;;;;;1454464;40;20791;-85
2021/06/04 06:10:28;;;;;;;37.60;27.17;;;;;;;;;;1457514;40;20415;-86
2021/06/04 06:11:30;;;;;;;39.03;27.15;;;;;;;;;;1459212;40;20824;-87
2021/06/04 06:12:32;;;;;;;44.28;27.98;;;;;;;;;;1463415;40;20572;-87
2021/06/04 06:13:34;;;;;;;42.45;27.17;;;;;;;;;;1463603;40;20455;-89
2021/06/04 06:14:36;;;;;;;39.05;27.30;;;;;;;;;;1462026;40;20543;-87
2021/06/04 06:15:38;;;;;;;41.63;26.35;;;;;;;;;;1452389;40;20483;-88
2021/06/04 06:16:40;;;;;;;42.40;27.20;;;;;;;;;;1453653;40;20515;-88
2021/06/04 06:17:43;;;;;;;33.50;25.93;;;;;;;;;;1459894;40;20432;-87
2021/06/04 06:18:44;;;;;;;35.88;25.80;;;;;;;;;;1463287;40;20536;-85
2021/06/04 06:19:46;;;;;;;37.78;25.83;;;;;;;;;;1463393;40;20475;-85
2021/06/04 06:20:55;;;;;;;41.83;27.20;;;;;;;;;;1460316;40;20445;-85
2021/06/04 06:21:58;;;;;;;38.58;26.35;;;;;;;;;;1462080;40;20414;-88
2021/06/04 06:23:00;;;;;;;45.08;27.13;;;;;;;;;;1457888;40;21073;-86